الصفحة الرئيسية
METAR-TAF:

METAR-TAF

مطار :

ليما, بيرو

دائرة عرض: 12-00S, خط طول: 077-07W, ارتفاع: 12 متر

مراقبة الطقس الحالي

تاريخ ووقت الإصدار 43 دقيقة قبل الساعة 02:00UTC
ريح 4 عقدة من الجنوب
درجة الحرارة 16°درجة مئوية
الرطوبة 88%
ضغط 1015 hPa
الرؤية 10 كم أو أكثر
ملبد بالغيوم على ارتفاع 1400 قدم

METAR: SPJC 250200Z 19004KT 9999 OVC014 16/14 Q1015 NOSIG RMK PP000

زمن: 21:43 (02:43 UTC)

توقعات

تاريخ ووقت الإصدار 3ساعات و 43 دقيقة قبل الساعة 23:00UTC
التوقعات صالحة من25 الساعة 00 UTC إلى 25 الساعة 24 UTC
ريح 7 عقدة من الجنوب
الرؤية: 7000 متر
ملبد بالغيوم على ارتفاع 1200 قدم
أصبح
من 25 الساعة 03 UTC إلى 25 الساعة 06 UTC
ملبد بالغيوم على ارتفاع 800 قدم
أصبح
من 25 الساعة 09 UTC إلى 25 الساعة 11 UTC
الرؤية: 3000 متر
غشاء,

TAF: SPJC 242300Z 2500/2524 18007KT 7000 OVC012 TX18/2519Z TN15/2511Z BECMG 2503/2506 OVC008 BECMG 2509/2511 3000 BR

أرصاد الطقس والتوقعات من أكثر من 4000 مطار (تقارير الطقس للمطار METAR والتنبؤ بالطقس بالمطارTAF).

المحطات المتاحة هي النقط الصفراء والحمراء على الخريطة.

حرك المؤشر فوق النقطة لمعرفة اسم المحطة.

ثم انقر لمعرفة أرصاد وتوقعات الطقس.

لتغيير الخارطة: اضغط على الأزرار الخضراء مع رمز الصليب الأسود للتكبير. على الزر الأخضر مع شرطة للتصغير، أو على الأسهم الخضراء للخرائط المجاورة.


METAR-TAF: